Time;durP1;ratioP1;P1;durP2;ratioP2;P2;SDS_P1;SDS_P2;PMS_P1;PMS_P2;Temp;Humidity;BMP_temperature;BMP_pressure;BME280_temperature;BME280_humidity;BME280_pressure;Samples;Min_cycle;Max_cycle;Signal;HPM_P1;HPM_P2
2021/05/01 00:02:10;;;;;;;25.88;17.42;;;;;;;7.45;100.00;97980.88;3703536;79;43256;-25
2021/05/01 00:07:16;;;;;;;26.93;17.65;;;;;;;7.48;100.00;97995.30;3711283;78;43225;-24
2021/05/01 00:12:22;;;;;;;26.45;17.77;;;;;;;7.47;100.00;98001.65;3709531;79;43356;-24
2021/05/01 00:17:28;;;;;;;25.02;17.02;;;;;;;7.48;100.00;98000.66;3667065;79;44023;-24
2021/05/01 00:22:35;;;;;;;24.63;16.42;;;;;;;7.44;100.00;97993.42;3661771;80;43679;-24
2021/05/01 00:27:42;;;;;;;26.30;17.93;;;;;;;7.31;100.00;98006.34;3654473;79;43409;-25
2021/05/01 00:32:47;;;;;;;27.27;18.20;;;;;;;7.35;100.00;97995.16;3651988;80;43136;-25
2021/05/01 00:37:53;;;;;;;26.70;18.23;;;;;;;7.36;100.00;97981.28;3658592;79;43469;-25
2021/05/01 00:42:59;;;;;;;23.60;16.45;;;;;;;7.38;100.00;97972.61;3653878;80;42797;-22
2021/05/01 00:48:06;;;;;;;24.90;16.60;;;;;;;7.32;100.00;97972.72;3656207;80;44004;-22
2021/05/01 00:53:14;;;;;;;26.82;17.92;;;;;;;7.35;100.00;97972.39;3653781;79;43754;-22
2021/05/01 00:58:20;;;;;;;29.55;18.02;;;;;;;7.29;100.00;97978.37;3654553;80;43689;-22
2021/05/01 01:03:27;;;;;;;27.55;18.32;;;;;;;7.29;100.00;97984.24;3647892;80;43941;-21
2021/05/01 01:08:33;;;;;;;25.85;17.87;;;;;;;7.27;100.00;97977.67;3656225;80;44618;-22
2021/05/01 01:13:39;;;;;;;27.77;18.00;;;;;;;7.25;100.00;97971.62;3656466;80;43758;-22
2021/05/01 01:18:45;;;;;;;26.27;17.87;;;;;;;7.28;100.00;97959.78;3623987;80;44034;-22
2021/05/01 01:23:51;;;;;;;26.48;18.90;;;;;;;7.25;100.00;97959.56;3599484;80;43762;-22
2021/05/01 01:28:57;;;;;;;27.07;18.00;;;;;;;7.23;100.00;97954.88;3625816;79;43411;-22
2021/05/01 01:34:04;;;;;;;26.15;17.77;;;;;;;7.20;100.00;97955.17;3636258;80;43094;-23
2021/05/01 01:39:10;;;;;;;29.98;19.98;;;;;;;7.22;100.00;97955.87;3637292;79;43516;-22
2021/05/01 01:44:16;;;;;;;26.55;18.48;;;;;;;7.22;100.00;97955.87;3633636;80;43702;-22
2021/05/01 01:49:24;;;;;;;27.02;18.30;;;;;;;7.18;100.00;97959.83;3623493;80;43676;-22
2021/05/01 01:54:30;;;;;;;27.67;18.62;;;;;;;7.15;100.00;97960.13;3632035;80;43732;-23
2021/05/01 01:59:35;;;;;;;27.67;18.50;;;;;;;7.08;100.00;97962.08;3642323;80;77426;-23
2021/05/01 02:04:41;;;;;;;26.10;18.00;;;;;;;7.05;100.00;97958.36;3644359;79;44097;-22
2021/05/01 02:09:47;;;;;;;27.45;18.73;;;;;;;7.01;100.00;97960.15;3633931;80;44198;-23
2021/05/01 02:14:53;;;;;;;27.25;18.92;;;;;;;7.03;100.00;97959.00;3641343;79;44102;-22
2021/05/01 02:19:59;;;;;;;28.87;18.70;;;;;;;7.05;100.00;97953.00;3678655;79;43720;-22
2021/05/01 02:25:08;;;;;;;29.00;18.70;;;;;;;6.99;100.00;97952.27;3675429;79;43770;-22
2021/05/01 02:30:16;;;;;;;30.15;20.25;;;;;;;7.02;100.00;97955.14;3680702;79;43068;-22
2021/05/01 02:35:25;;;;;;;29.72;20.30;;;;;;;6.97;100.00;97950.23;3678749;79;43407;-23
2021/05/01 02:40:32;;;;;;;28.83;19.65;;;;;;;6.96;100.00;97945.88;3680929;79;43356;-23
2021/05/01 02:45:39;;;;;;;30.30;20.10;;;;;;;7.00;100.00;97931.67;3680287;79;43699;-22
2021/05/01 02:50:47;;;;;;;28.47;19.30;;;;;;;7.00;100.00;97925.81;3675193;79;43361;-23
2021/05/01 02:55:52;;;;;;;28.97;19.53;;;;;;;7.00;100.00;97925.81;3676144;79;78465;-23
2021/05/01 03:00:58;;;;;;;31.82;20.37;;;;;;;6.96;100.00;97934.30;3689206;79;44070;-23
2021/05/01 03:06:06;;;;;;;31.37;20.12;;;;;;;6.83;100.00;97929.31;3679766;79;43302;-23
2021/05/01 03:11:12;;;;;;;31.40;20.10;;;;;;;6.73;100.00;97936.05;3677294;79;77721;-22
2021/05/01 03:16:18;;;;;;;33.35;22.13;;;;;;;6.65;100.00;97924.74;3584646;81;43680;-22
2021/05/01 03:21:25;;;;;;;35.73;22.40;;;;;;;6.49;100.00;97929.40;3610953;79;44033;-22
2021/05/01 03:26:31;;;;;;;33.53;22.07;;;;;;;6.51;100.00;97922.58;3620838;80;44080;-22
2021/05/01 03:31:38;;;;;;;32.53;20.40;;;;;;;6.58;100.00;97923.19;3629892;80;43673;-22
2021/05/01 03:36:45;;;;;;;30.70;20.05;;;;;;;6.61;100.00;97928.73;3632144;80;43321;-25
2021/05/01 03:41:51;;;;;;;31.02;20.68;;;;;;;6.63;100.00;97922.73;3622957;80;44482;-26
2021/05/01 03:46:57;;;;;;;32.35;20.35;;;;;;;6.63;100.00;97942.30;3623381;80;43408;-25
2021/05/01 03:52:03;;;;;;;31.10;19.70;;;;;;;6.61;100.00;97958.17;3631961;80;43235;-26
2021/05/01 03:57:09;;;;;;;29.07;19.07;;;;;;;6.66;100.00;97949.19;3635961;80;43717;-25
2021/05/01 04:02:16;;;;;;;30.05;20.05;;;;;;;6.67;100.00;97958.07;3634777;79;43401;-25
2021/05/01 04:07:22;;;;;;;30.62;19.02;;;;;;;6.69;100.00;97957.44;3638510;80;43230;-25
2021/05/01 04:12:28;;;;;;;31.80;21.27;;;;;;;6.66;100.00;97968.43;3639946;80;43961;-25
2021/05/01 04:17:35;;;;;;;34.10;21.23;;;;;;;6.72;100.00;97967.83;3658262;79;43380;-25
2021/05/01 04:22:41;;;;;;;28.92;18.52;;;;;;;6.70;100.00;97975.19;3706861;79;44163;-25
2021/05/01 04:27:47;;;;;;;32.95;21.45;;;;;;;6.72;100.00;97966.48;3710185;79;43757;-25
2021/05/01 04:32:54;;;;;;;32.93;21.60;;;;;;;6.66;100.00;97955.88;3705683;79;43464;-25
2021/05/01 04:37:59;;;;;;;35.90;22.20;;;;;;;6.65;100.00;97950.17;3714369;79;43340;-26
2021/05/01 04:43:06;;;;;;;31.93;21.02;;;;;;;6.63;100.00;97953.52;3707662;78;43383;-27
2021/05/01 04:48:13;;;;;;;32.80;21.65;;;;;;;6.71;100.00;97958.96;3712636;79;43661;-25
2021/05/01 04:53:20;;;;;;;33.20;21.45;;;;;;;6.82;100.00;97949.05;3706690;79;44077;-25
2021/05/01 04:58:26;;;;;;;31.57;20.70;;;;;;;6.91;100.00;97950.82;3646627;80;43702;-25
2021/05/01 05:03:32;;;;;;;31.95;21.52;;;;;;;6.97;100.00;97939.53;3709835;79;43703;-25
2021/05/01 05:08:37;;;;;;;33.38;22.32;;;;;;;7.04;100.00;97936.58;3687295;79;44105;-26
2021/05/01 05:13:43;;;;;;;34.18;21.57;;;;;;;7.14;100.00;97939.69;3625824;80;43420;-25
2021/05/01 05:18:50;;;;;;;31.48;21.45;;;;;;;7.28;100.00;97943.19;3715227;79;43323;-25
2021/05/01 05:23:57;;;;;;;30.17;20.30;;;;;;;7.41;100.00;97937.44;3638370;80;44047;-26
2021/05/01 05:29:03;;;;;;;30.92;21.27;;;;;;;7.54;100.00;97939.23;3711148;78;43482;-25
2021/05/01 05:34:09;;;;;;;31.80;20.40;;;;;;;7.70;100.00;97940.39;3707458;79;44471;-25
2021/05/01 05:39:15;;;;;;;29.45;19.73;;;;;;;7.82;100.00;97949.05;3700309;79;44083;-26
2021/05/01 05:44:24;;;;;;;28.35;18.98;;;;;;;7.96;100.00;97955.16;3704646;78;44584;-25
2021/05/01 05:49:32;;;;;;;27.77;19.25;;;;;;;8.09;100.00;97954.77;3704381;79;44002;-26
2021/05/01 05:54:38;;;;;;;26.97;19.00;;;;;;;8.25;100.00;97945.98;3709117;79;43367;-26
2021/05/01 05:59:45;;;;;;;30.05;20.02;;;;;;;8.43;100.00;97949.95;3647649;79;43715;-26
2021/05/01 06:04:56;;;;;;;26.55;18.05;;;;;;;8.59;100.00;97957.28;3710222;79;44002;-26
2021/05/01 06:10:07;;;;;;;26.27;16.67;;;;;;;8.68;100.00;97957.30;3718013;79;43436;-26
2021/05/01 06:15:15;;;;;;;21.27;15.53;;;;;;;8.81;100.00;97945.62;3713338;79;43715;-27
2021/05/01 06:20:21;;;;;;;22.35;16.15;;;;;;;8.98;100.00;97945.69;3701866;79;44423;-26
2021/05/01 06:25:27;;;;;;;23.32;16.07;;;;;;;9.10;100.00;97930.95;3626005;81;44046;-26
2021/05/01 06:30:38;;;;;;;21.17;15.38;;;;;;;9.30;100.00;97940.05;3687230;79;43470;-26
2021/05/01 06:35:43;;;;;;;20.50;14.95;;;;;;;9.48;100.00;97937.23;3615576;81;43720;-26
2021/05/01 06:40:54;;;;;;;19.07;13.30;;;;;;;9.63;100.00;97930.19;3686163;79;43693;-26
2021/05/01 06:45:59;;;;;;;21.20;14.80;;;;;;;9.77;100.00;97931.36;3685422;79;44019;-26
2021/05/01 06:51:05;;;;;;;21.50;15.70;;;;;;;9.87;100.00;97937.41;3620884;81;44057;-26
2021/05/01 06:56:14;;;;;;;21.30;15.35;;;;;;;9.87;100.00;97948.17;3681312;79;43453;-26
2021/05/01 07:01:22;;;;;;;23.32;14.68;;;;;;;9.96;100.00;97937.39;3598489;81;43454;-24
2021/05/01 07:06:31;;;;;;;22.13;15.60;;;;;;;10.08;100.00;97938.73;3666917;79;44081;-23
2021/05/01 07:11:37;;;;;;;22.02;15.30;;;;;;;10.21;100.00;97949.48;3623862;81;44426;-20
2021/05/01 07:16:43;;;;;;;18.15;14.00;;;;;;;10.27;100.00;97945.60;3686786;79;44033;-21
2021/05/01 07:21:50;;;;;;;18.12;14.30;;;;;;;10.56;100.00;97946.06;3700103;79;44220;-21
2021/05/01 07:26:58;;;;;;;18.62;12.98;;;;;;;10.80;100.00;97945.16;3712397;79;43960;-21
2021/05/01 07:32:06;;;;;;;15.70;11.83;;;;;;;10.91;100.00;97935.83;3698638;79;44067;-20
2021/05/01 07:37:16;;;;;;;15.40;11.55;;;;;;;10.90;100.00;97932.80;3710413;79;43093;-21
2021/05/01 07:42:23;;;;;;;15.30;11.33;;;;;;;10.78;100.00;97937.23;3707430;79;43669;-20
2021/05/01 07:47:32;;;;;;;13.90;10.68;;;;;;;10.95;100.00;97934.48;3713145;79;44536;-20
2021/05/01 07:52:39;;;;;;;15.88;11.45;;;;;;;11.15;100.00;97929.98;3650818;80;43368;-20
2021/05/01 07:57:46;;;;;;;13.98;10.70;;;;;;;11.37;100.00;97929.70;3713073;79;43767;-20
2021/05/01 08:02:52;;;;;;;16.32;12.15;;;;;;;11.49;100.00;97916.12;3699410;79;43701;-20
2021/05/01 08:07:59;;;;;;;16.25;12.40;;;;;;;11.74;99.07;97912.39;3702985;79;43685;-20
2021/05/01 08:13:06;;;;;;;18.42;13.35;;;;;;;11.87;100.00;97915.31;3699337;79;44411;-20
2021/05/01 08:18:12;;;;;;;17.60;13.50;;;;;;;11.97;96.95;97907.80;3701937;78;43721;-20
2021/05/01 08:23:18;;;;;;;19.25;14.28;;;;;;;11.85;100.00;97923.61;3645875;79;43425;-20
2021/05/01 08:28:24;;;;;;;17.65;13.72;;;;;;;11.49;96.48;97917.48;3647954;79;43395;-20
2021/05/01 08:33:31;;;;;;;18.67;13.75;;;;;;;11.70;99.78;97918.66;3631271;80;43361;-20
2021/05/01 08:38:38;;;;;;;16.48;12.63;;;;;;;11.88;96.60;97921.87;3649050;80;44149;-20
2021/05/01 08:43:44;;;;;;;18.20;13.90;;;;;;;11.96;98.61;97927.71;3637294;80;43689;-20
2021/05/01 08:48:51;;;;;;;16.25;12.65;;;;;;;11.84;94.98;97904.37;3629066;80;44040;-20
2021/05/01 08:53:57;;;;;;;14.78;12.37;;;;;;;11.72;93.79;97903.96;3622936;80;43664;-20
2021/05/01 08:59:04;;;;;;;15.13;12.28;;;;;;;11.76;93.27;97903.61;3631901;79;43990;-20
2021/05/01 09:04:11;;;;;;;16.65;12.80;;;;;;;11.77;91.01;97898.54;3636559;80;44059;-20
2021/05/01 09:09:17;;;;;;;14.78;12.20;;;;;;;12.09;90.43;97902.84;3636160;80;44018;-20
2021/05/01 09:14:26;;;;;;;14.30;11.78;;;;;;;12.40;86.88;97898.30;3636911;80;44851;-20
2021/05/01 09:19:38;;;;;;;15.98;12.25;;;;;;;12.70;84.77;97905.03;3648842;79;43399;-21
2021/05/01 09:24:44;;;;;;;14.13;11.93;;;;;;;13.21;88.58;97915.02;3678327;79;44114;-20
2021/05/01 09:29:51;;;;;;;12.95;11.28;;;;;;;13.52;80.40;97913.94;3689020;79;43569;-20
2021/05/01 09:34:58;;;;;;;12.78;10.38;;;;;;;13.47;84.79;97911.78;3681827;79;43673;-20
2021/05/01 09:40:06;;;;;;;11.73;10.10;;;;;;;13.84;78.88;97897.66;3685570;79;43365;-23
2021/05/01 09:45:18;;;;;;;10.93;9.80;;;;;;;13.95;75.80;97900.86;3679818;78;43949;-24
2021/05/01 09:50:29;;;;;;;12.45;10.95;;;;;;;13.40;76.33;97904.12;3689910;79;43832;-24
2021/05/01 09:55:54;;;;;;;13.15;11.30;;;;;;;13.80;79.11;97888.27;3627140;81;44030;-23
2021/05/01 10:01:15;;;;;;;13.68;11.75;;;;;;;13.93;73.74;97882.11;3683859;79;43689;-25
2021/05/01 10:06:24;;;;;;;13.60;12.15;;;;;;;13.75;76.28;97898.83;3606519;81;42871;-24
2021/05/01 10:11:32;;;;;;;13.48;11.40;;;;;;;13.20;80.16;97883.08;3669466;79;44167;-23
2021/05/01 10:16:39;;;;;;;13.40;11.97;;;;;;;13.54;75.78;97901.88;3666005;79;43693;-25
2021/05/01 10:21:47;;;;;;;11.33;10.13;;;;;;;13.61;77.87;97892.97;3681011;79;43701;-24
2021/05/01 10:26:54;;;;;;;11.73;10.08;;;;;;;14.01;69.19;97894.67;3659449;79;43399;-23
2021/05/01 10:32:01;;;;;;;11.30;10.10;;;;;;;14.37;73.23;97891.47;3651837;80;44046;-23
2021/05/01 10:37:08;;;;;;;12.90;11.60;;;;;;;14.71;68.80;97889.31;3655293;80;44050;-24
2021/05/01 10:42:16;;;;;;;11.38;10.25;;;;;;;14.74;71.96;97894.84;3648761;79;44581;-24
2021/05/01 10:47:22;;;;;;;11.50;10.40;;;;;;;14.81;70.34;97894.38;3627837;80;43384;-22
2021/05/01 10:52:30;;;;;;;12.88;11.57;;;;;;;14.66;68.18;97870.59;3644888;80;43221;-22
2021/05/01 10:57:36;;;;;;;13.13;11.75;;;;;;;15.14;68.84;97861.10;3654770;80;44611;-22
2021/05/01 11:02:44;;;;;;;13.43;12.13;;;;;;;15.06;68.27;97860.77;3652264;80;43709;-23
2021/05/01 11:07:53;;;;;;;13.43;12.03;;;;;;;14.71;70.01;97862.20;3653891;79;43732;-23
2021/05/01 11:13:01;;;;;;;13.05;11.80;;;;;;;14.88;64.31;97855.05;3655489;79;44192;-23
2021/05/01 11:18:09;;;;;;;12.18;10.98;;;;;;;15.29;67.46;97861.45;3659931;79;44039;-22
2021/05/01 11:23:16;;;;;;;12.78;11.57;;;;;;;15.45;64.92;97853.44;3643765;79;43464;-23
2021/05/01 11:28:24;;;;;;;11.68;10.58;;;;;;;15.55;62.48;97856.05;3640327;80;42868;-23
2021/05/01 11:33:31;;;;;;;11.65;10.55;;;;;;;15.77;61.46;97854.48;3634220;80;43717;-23
2021/05/01 11:38:39;;;;;;;11.05;10.05;;;;;;;15.91;63.86;97865.38;3631272;80;44072;-23
2021/05/01 11:43:47;;;;;;;12.93;11.68;;;;;;;15.86;63.97;97850.57;3635092;80;42771;-22
2021/05/01 11:48:58;;;;;;;11.83;10.70;;;;;;;16.06;63.68;97844.78;3633388;79;44021;-23
2021/05/01 11:54:19;;;;;;;12.00;10.90;;;;;;;15.53;64.47;97843.73;3639851;80;43184;-23
2021/05/01 11:59:26;;;;;;;11.75;10.63;;;;;;;15.26;62.14;97842.33;3634169;80;44005;-21
2021/05/01 12:04:49;;;;;;;12.00;10.80;;;;;;;15.02;63.79;97837.78;3637988;80;43436;-21
2021/05/01 12:09:58;;;;;;;10.95;9.85;;;;;;;15.00;64.79;97829.02;3630380;80;43957;-22
2021/05/01 12:15:09;;;;;;;11.93;10.72;;;;;;;15.31;64.51;97822.71;3643813;80;43509;-23
2021/05/01 12:20:18;;;;;;;11.15;10.10;;;;;;;15.06;60.09;97819.22;3635567;80;43365;-22
2021/05/01 12:25:37;;;;;;;11.48;10.28;;;;;;;15.27;64.08;97818.76;3634945;80;43738;-22
2021/05/01 12:31:01;;;;;;;12.80;11.48;;;;;;;15.54;61.88;97825.05;3639788;80;43678;-22
2021/05/01 12:36:09;;;;;;;11.25;10.15;;;;;;;15.40;60.62;97820.96;3611573;80;44019;-22
2021/05/01 12:41:24;;;;;;;12.43;11.22;;;;;;;15.70;62.98;97819.18;3607491;80;44237;-22
2021/05/01 12:46:46;;;;;;;11.08;9.98;;;;;;;15.53;60.50;97803.83;3629301;80;43486;-22
2021/05/01 12:52:12;;;;;;;10.60;9.60;;;;;;;15.39;61.52;97800.28;3645051;79;44173;-22
2021/05/01 12:57:19;;;;;;;11.10;10.10;;;;;;;15.63;59.03;97789.03;3622050;80;43677;-22
2021/05/01 13:02:29;;;;;;;10.43;9.53;;;;;;;15.76;58.70;97773.23;3633599;80;43483;-22
2021/05/01 13:07:36;;;;;;;10.93;9.85;;;;;;;15.91;58.97;97780.67;3627575;80;44039;-22
2021/05/01 13:13:03;;;;;;;10.40;9.40;;;;;;;15.69;57.46;97782.74;3640236;80;44181;-23
2021/05/01 13:18:12;;;;;;;10.85;9.75;;;;;;;15.77;58.89;97762.69;3632038;80;44054;-21
2021/05/01 13:23:19;;;;;;;10.08;9.18;;;;;;;15.84;58.61;97767.09;3638792;80;44478;-22
2021/05/01 13:28:25;;;;;;;10.38;9.38;;;;;;;15.92;59.10;97766.05;3640104;80;43491;-23
2021/05/01 13:33:31;;;;;;;9.73;8.83;;;;;;;15.90;58.16;97775.43;3639572;80;43989;-22
2021/05/01 13:38:37;;;;;;;11.60;10.40;;;;;;;15.92;57.12;97776.91;3639566;80;44066;-22
2021/05/01 13:43:48;;;;;;;10.95;9.95;;;;;;;15.86;56.72;97773.16;3640915;79;43918;-22
2021/05/01 13:48:55;;;;;;;10.03;9.13;;;;;;;15.84;57.13;97764.38;3631980;80;43388;-22
2021/05/01 13:54:09;;;;;;;11.08;9.00;;;;;;;15.70;57.14;97765.41;3636829;80;43473;-22
2021/05/01 13:59:28;;;;;;;9.78;8.88;;;;;;;15.76;57.13;97759.66;3638102;80;43721;-22
2021/05/01 14:04:36;;;;;;;10.88;9.88;;;;;;;15.92;56.19;97756.53;3642816;80;44058;-22
2021/05/01 14:09:42;;;;;;;9.80;8.80;;;;;;;15.80;55.94;97751.41;3641714;80;44035;-21
2021/05/01 14:14:47;;;;;;;10.35;9.35;;;;;;;15.66;55.98;97726.98;3638695;80;44109;-22
2021/05/01 14:19:56;;;;;;;9.35;8.45;;;;;;;15.61;58.12;97719.98;3635417;80;43580;-22
2021/05/01 14:25:07;;;;;;;8.60;7.87;;;;;;;15.62;58.70;97723.02;3660460;78;44033;-23
2021/05/01 14:30:15;;;;;;;10.78;9.68;;;;;;;15.78;57.19;97712.76;3656677;79;44021;-23
2021/05/01 14:35:21;;;;;;;9.50;8.60;;;;;;;15.61;55.26;97714.55;3662178;79;43971;-23
2021/05/01 14:40:27;;;;;;;9.98;9.03;;;;;;;15.72;57.95;97715.80;3684160;79;43330;-23
2021/05/01 14:45:33;;;;;;;10.70;9.70;;;;;;;15.99;56.65;97711.16;3686659;78;44034;-23
2021/05/01 14:50:39;;;;;;;10.60;9.38;;;;;;;15.78;55.18;97720.37;3615117;81;43428;-23
2021/05/01 14:55:48;;;;;;;9.28;8.35;;;;;;;15.64;55.81;97725.53;3673828;81;43391;-20
2021/05/01 15:00:54;;;;;;;9.35;8.45;;;;;;;15.59;57.32;97723.42;3669781;81;44049;-23
2021/05/01 15:06:01;;;;;;;9.53;8.63;;;;;;;16.00;55.16;97725.06;3673238;79;43682;-24
2021/05/01 15:11:14;;;;;;;9.55;8.65;;;;;;;15.95;58.76;97734.36;3647295;81;43677;-22
2021/05/01 15:16:20;;;;;;;10.40;9.30;;;;;;;15.39;57.90;97727.00;3765868;79;44075;-22
2021/05/01 15:21:26;;;;;;;9.33;8.43;;;;;;;15.31;58.64;97737.23;3688440;79;43709;-22
2021/05/01 15:26:32;;;;;;;8.63;7.83;;;;;;;15.50;59.55;97740.98;3759942;79;44043;-22
2021/05/01 15:31:39;;;;;;;9.78;8.78;;;;;;;15.63;57.71;97734.73;3758954;79;43612;-22
2021/05/01 15:36:45;;;;;;;9.68;8.78;;;;;;;15.16;56.68;97738.80;3763998;77;43383;-22
2021/05/01 15:41:51;;;;;;;9.70;8.80;;;;;;;15.03;59.91;97739.09;3759033;77;43444;-23
2021/05/01 15:46:56;;;;;;;10.00;8.70;;;;;;;14.89;59.43;97737.40;3757407;79;44102;-22
2021/05/01 15:52:03;;;;;;;9.48;7.78;;;;;;;14.75;62.60;97737.40;3761790;77;44102;-23
2021/05/01 15:57:09;;;;;;;8.40;7.60;;;;;;;14.61;63.39;97731.59;3756789;79;44053;-24
2021/05/01 16:02:17;;;;;;;10.43;7.87;;;;;;;14.68;64.17;97727.03;3761522;77;43694;-22
2021/05/01 16:07:23;;;;;;;7.80;7.03;;;;;;;14.66;63.37;97722.30;3759186;79;43429;-22
2021/05/01 16:12:29;;;;;;;9.48;8.48;;;;;;;14.52;64.39;97714.67;3753633;77;43720;-22
2021/05/01 16:17:36;;;;;;;10.00;9.00;;;;;;;14.25;63.83;97715.09;3758387;77;43725;-21
2021/05/01 16:22:44;;;;;;;9.53;8.63;;;;;;;14.20;67.06;97711.65;3760142;77;44001;-22
2021/05/01 16:27:50;;;;;;;10.25;9.08;;;;;;;14.28;67.01;97704.69;3761509;77;44094;-22
2021/05/01 16:32:56;;;;;;;9.88;8.85;;;;;;;14.31;66.40;97684.47;3764353;77;44123;-23
2021/05/01 16:38:02;;;;;;;10.58;9.58;;;;;;;14.33;66.28;97694.09;3750156;78;43041;-22
2021/05/01 16:43:08;;;;;;;10.55;9.50;;;;;;;14.32;67.02;97686.14;3758356;77;44758;-23
2021/05/01 16:48:14;;;;;;;10.50;9.20;;;;;;;14.31;65.54;97682.62;3760949;77;43418;-22
2021/05/01 16:53:20;;;;;;;10.48;9.45;;;;;;;14.35;66.29;97670.84;3759578;78;43400;-24
2021/05/01 16:58:28;;;;;;;10.43;8.80;;;;;;;14.33;67.34;97678.34;3755685;78;44906;-24
2021/05/01 17:03:33;;;;;;;10.00;8.83;;;;;;;14.30;67.81;97680.09;3762268;77;43444;-22
2021/05/01 17:08:39;;;;;;;10.30;9.28;;;;;;;14.38;67.40;97682.64;3759684;79;43278;-22
2021/05/01 17:13:45;;;;;;;10.95;9.78;;;;;;;14.47;66.56;97675.98;3757069;79;44176;-22
2021/05/01 17:18:51;;;;;;;11.12;10.03;;;;;;;14.42;66.28;97670.86;3760535;77;43903;-22
2021/05/01 17:23:58;;;;;;;11.65;10.45;;;;;;;14.24;68.58;97679.03;3759786;79;43633;-22
2021/05/01 17:29:05;;;;;;;12.35;11.15;;;;;;;14.13;69.25;97679.11;3676402;80;44145;-22
2021/05/01 17:34:11;;;;;;;13.10;11.70;;;;;;;14.01;70.24;97691.03;3677825;79;44082;-21
2021/05/01 17:39:17;;;;;;;14.00;12.60;;;;;;;13.84;70.95;97685.12;3674650;79;44035;-22
2021/05/01 17:44:23;;;;;;;14.20;12.33;;;;;;;13.69;72.00;97684.43;3675161;81;43461;-22
2021/05/01 17:49:30;;;;;;;14.63;13.13;;;;;;;13.50;72.81;97690.86;3678822;79;43338;-22
2021/05/01 17:54:36;;;;;;;14.47;12.98;;;;;;;13.34;73.08;97691.97;3676221;79;44055;-22
2021/05/01 17:59:43;;;;;;;14.28;12.82;;;;;;;13.08;75.84;97688.55;3673742;81;43448;-22
2021/05/01 18:04:49;;;;;;;15.05;13.40;;;;;;;12.86;75.80;97691.28;3679962;79;43403;-22
2021/05/01 18:09:55;;;;;;;15.58;14.05;;;;;;;12.59;77.15;97688.81;3673152;80;44055;-22
2021/05/01 18:15:01;;;;;;;14.93;13.32;;;;;;;12.36;78.96;97693.88;3675771;81;43305;-22
2021/05/01 18:20:12;;;;;;;15.58;13.93;;;;;;;12.19;78.83;97687.88;3676202;79;43148;-22
2021/05/01 18:25:18;;;;;;;15.48;13.98;;;;;;;12.00;79.84;97690.16;3687444;78;43349;-23
2021/05/01 18:30:24;;;;;;;15.93;13.98;;;;;;;11.91;79.75;97696.66;3754844;79;44003;-21
2021/05/01 18:35:32;;;;;;;16.40;14.70;;;;;;;11.82;81.68;97695.91;3764508;77;43432;-22
2021/05/01 18:40:41;;;;;;;15.78;14.18;;;;;;;11.76;82.58;97695.82;3754675;79;43941;-22
2021/05/01 18:45:47;;;;;;;18.57;12.95;;;;;;;11.66;83.36;97694.25;3760115;77;44024;-22
2021/05/01 18:50:54;;;;;;;15.60;13.35;;;;;;;11.59;82.17;97688.42;3774781;77;44102;-22
2021/05/01 18:56:03;;;;;;;15.58;12.73;;;;;;;11.51;81.49;97698.30;3746134;77;44037;-22
2021/05/01 19:01:09;;;;;;;15.03;13.15;;;;;;;11.49;82.20;97699.48;3740452;77;44012;-22
2021/05/01 19:06:15;;;;;;;17.00;14.58;;;;;;;11.39;83.09;97704.64;3741923;77;43986;-21
2021/05/01 19:11:24;;;;;;;16.75;15.00;;;;;;;11.36;83.22;97708.22;3746662;77;43677;-23
2021/05/01 19:16:31;;;;;;;17.05;14.90;;;;;;;11.34;84.41;97701.68;3756493;77;43060;-22
2021/05/01 19:21:38;;;;;;;17.77;15.78;;;;;;;11.27;84.90;97706.11;3759338;77;43720;-23
2021/05/01 19:26:46;;;;;;;19.62;15.95;;;;;;;11.20;85.65;97697.92;3747619;78;44079;-22
2021/05/01 19:31:52;;;;;;;17.57;15.28;;;;;;;11.18;86.12;97700.48;3723195;79;44533;-23
2021/05/01 19:36:59;;;;;;;17.17;15.38;;;;;;;11.10;86.76;97708.98;3725096;78;43163;-22
2021/05/01 19:42:06;;;;;;;17.73;15.23;;;;;;;11.07;87.10;97709.34;3727224;78;43384;-22
2021/05/01 19:47:12;;;;;;;19.05;15.75;;;;;;;11.00;86.87;97702.98;3725652;78;43144;-23
2021/05/01 19:52:21;;;;;;;18.05;14.87;;;;;;;11.00;87.10;97705.67;3723468;78;43738;-23
2021/05/01 19:57:27;;;;;;;17.48;15.58;;;;;;;10.95;87.78;97703.52;3729300;78;44018;-23
2021/05/01 20:02:34;;;;;;;18.48;16.48;;;;;;;10.91;87.65;97697.34;3726838;78;43729;-23
2021/05/01 20:07:40;;;;;;;19.20;17.10;;;;;;;10.88;88.21;97694.50;3724610;78;43269;-22
2021/05/01 20:12:47;;;;;;;20.62;17.67;;;;;;;10.91;88.60;97697.34;3724362;79;43349;-24
2021/05/01 20:17:53;;;;;;;20.80;17.57;;;;;;;10.84;89.42;97690.48;3724583;78;43702;-22
2021/05/01 20:22:59;;;;;;;19.80;17.05;;;;;;;10.81;89.72;97690.02;3721359;78;43713;-22
2021/05/01 20:28:06;;;;;;;21.70;17.80;;;;;;;10.68;90.96;97687.41;3721804;78;44070;-23
2021/05/01 20:33:12;;;;;;;19.62;17.50;;;;;;;10.63;91.80;97688.48;3727495;78;44125;-23
2021/05/01 20:38:19;;;;;;;21.17;18.25;;;;;;;10.60;92.46;97681.58;3723251;79;43970;-22
2021/05/01 20:43:27;;;;;;;19.95;17.42;;;;;;;10.56;93.10;97681.63;3723117;79;42996;-23
2021/05/01 20:48:32;;;;;;;20.23;17.67;;;;;;;10.52;93.15;97677.60;3723882;78;43740;-23
2021/05/01 20:53:39;;;;;;;21.12;17.52;;;;;;;10.51;92.94;97670.54;3726846;78;44068;-22
2021/05/01 20:58:45;;;;;;;20.10;17.17;;;;;;;10.50;92.40;97672.08;3720345;78;44140;-22
2021/05/01 21:03:51;;;;;;;19.52;16.65;;;;;;;10.46;91.70;97667.04;3726782;78;44422;-22
2021/05/01 21:08:58;;;;;;;20.48;17.02;;;;;;;10.44;91.96;97665.03;3719557;78;43964;-23
2021/05/01 21:14:06;;;;;;;20.17;17.10;;;;;;;10.44;92.12;97669.59;3723413;79;44053;-22
2021/05/01 21:19:13;;;;;;;19.73;16.48;;;;;;;10.37;92.81;97660.02;3724034;78;44059;-23
2021/05/01 21:24:19;;;;;;;21.85;18.07;;;;;;;10.35;93.39;97662.04;3723563;78;43724;-22
2021/05/01 21:29:25;;;;;;;21.45;18.32;;;;;;;10.33;93.78;97652.80;3723057;78;43376;-27
2021/05/01 21:34:31;;;;;;;21.48;17.87;;;;;;;10.28;94.80;97651.67;3726309;78;43963;-22
2021/05/01 21:39:38;;;;;;;19.10;15.98;;;;;;;10.24;94.01;97648.98;3720768;79;44074;-22
2021/05/01 21:44:45;;;;;;;21.37;17.05;;;;;;;10.24;93.73;97642.27;3723526;78;43991;-23
2021/05/01 21:49:51;;;;;;;20.55;17.10;;;;;;;10.23;94.30;97633.85;3722247;78;43678;-22
2021/05/01 21:54:57;;;;;;;21.05;17.90;;;;;;;10.21;95.00;97638.08;3723075;79;43665;-22
2021/05/01 22:00:11;;;;;;;18.90;16.77;;;;;;;10.15;95.70;97628.86;3717636;78;43676;-23
2021/05/01 22:05:16;;;;;;;19.82;16.65;;;;;;;10.12;95.54;97627.87;3722726;78;43251;-23
2021/05/01 22:10:22;;;;;;;19.00;16.57;;;;;;;10.07;96.69;97635.63;3723234;78;43709;-21
2021/05/01 22:15:29;;;;;;;21.00;17.48;;;;;;;9.99;97.79;97631.64;3723473;79;43970;-21
2021/05/01 22:20:41;;;;;;;20.68;17.50;;;;;;;9.97;97.86;97638.56;3722981;78;44021;-21
2021/05/01 22:25:50;;;;;;;20.35;17.00;;;;;;;9.95;98.36;97637.89;3718856;79;43303;-22
2021/05/01 22:30:55;;;;;;;24.85;18.85;;;;;;;9.93;99.36;97637.75;3751640;79;43981;-27
2021/05/01 22:36:02;;;;;;;24.15;19.35;;;;;;;9.82;100.00;97638.97;3759086;77;43695;-22
2021/05/01 22:41:10;;;;;;;23.50;19.45;;;;;;;9.72;100.00;97648.58;3757358;77;43948;-22
2021/05/01 22:46:18;;;;;;;25.90;20.10;;;;;;;9.64;100.00;97645.42;3758312;79;43998;-22
2021/05/01 22:51:27;;;;;;;25.02;20.15;;;;;;;9.51;100.00;97649.20;3759039;77;44030;-22
2021/05/01 22:56:34;;;;;;;25.23;20.27;;;;;;;9.35;100.00;97636.65;3757697;78;44474;-21
2021/05/01 23:01:41;;;;;;;27.95;21.52;;;;;;;9.19;100.00;97631.64;3758450;79;43660;-21
2021/05/01 23:06:49;;;;;;;26.52;21.37;;;;;;;9.08;100.00;97625.30;3760320;77;43401;-22
2021/05/01 23:11:56;;;;;;;29.00;22.58;;;;;;;8.99;100.00;97624.46;3758244;77;44693;-21
2021/05/01 23:17:02;;;;;;;28.90;21.73;;;;;;;8.89;100.00;97630.53;3757035;77;44066;-22
2021/05/01 23:22:09;;;;;;;30.13;22.27;;;;;;;8.79;100.00;97610.55;3758722;77;43423;-22
2021/05/01 23:27:15;;;;;;;28.87;21.97;;;;;;;8.69;100.00;97604.53;3757000;78;43693;-22
2021/05/01 23:32:22;;;;;;;30.37;22.05;;;;;;;8.56;100.00;97603.20;3760720;77;43702;-22
2021/05/01 23:37:29;;;;;;;31.83;22.83;;;;;;;8.46;100.00;97610.55;3758306;79;43393;-21